<?xml version="1.0" encoding="utf-8"?>
<gpx xmlns:xsi="http://www.w3.org/2001/XMLSchema-instance" xmlns:xsd="http://www.w3.org/2001/XMLSchema" version="1.1" creator="Shapelink.com" xmlns="http://www.topografix.com/GPX/1/1" xmlns:gpxtpx="http://www.garmin.com/xmlschemas/TrackPointExtension/v1">
  <metadata>
    <name>Nordic Skiing 4.19 km, 2016-02-21</name>
    <desc></desc>
    <author><name>Stefan Östlund</name></author> 
    <time>2016-02-21T10:23:02Z</time>
  </metadata>
  <trk>
    <name>Nordic Skiing 4.19 km, 2016-02-21</name>
    <trkseg>
      <trkpt lat="60.004425683326" lon="15.77187673391">
        <ele>408.2</ele>
        <time>2016-02-21T10:23:02Z</time>
      </trkpt>
      <trkpt lat="60.004428114077" lon="15.771883774706">
        <ele>407.6</ele>
        <time>2016-02-21T10:23:04Z</time>
      </trkpt>
      <trkpt lat="60.004450409931" lon="15.77184488269">
        <ele>406.8</ele>
        <time>2016-02-21T10:23:21Z</time>
      </trkpt>
      <trkpt lat="60.004517297493" lon="15.77183482441">
        <ele>406.8</ele>
        <time>2016-02-21T10:23:33Z</time>
      </trkpt>
      <trkpt lat="60.004543616659" lon="15.771949069707">
        <ele>406.8</ele>
        <time>2016-02-21T10:23:36Z</time>
      </trkpt>
      <trkpt lat="60.004569181454" lon="15.772202370725">
        <ele>406.4</ele>
        <time>2016-02-21T10:23:39Z</time>
      </trkpt>
      <trkpt lat="60.004569432911" lon="15.772447457481">
        <ele>405.4</ele>
        <time>2016-02-21T10:23:41Z</time>
      </trkpt>
      <trkpt lat="60.004537833148" lon="15.772692041323">
        <ele>404</ele>
        <time>2016-02-21T10:23:43Z</time>
      </trkpt>
      <trkpt lat="60.004463820971" lon="15.772904690126">
        <ele>402.4</ele>
        <time>2016-02-21T10:23:45Z</time>
      </trkpt>
      <trkpt lat="60.004383606188" lon="15.773069897375">
        <ele>400.8</ele>
        <time>2016-02-21T10:23:47Z</time>
      </trkpt>
      <trkpt lat="60.004307833812" lon="15.773185316138">
        <ele>400</ele>
        <time>2016-02-21T10:23:49Z</time>
      </trkpt>
      <trkpt lat="60.004235330377" lon="15.773238708841">
        <ele>399.6</ele>
        <time>2016-02-21T10:23:51Z</time>
      </trkpt>
      <trkpt lat="60.004094095362" lon="15.77317928117">
        <ele>400.8</ele>
        <time>2016-02-21T10:23:57Z</time>
      </trkpt>
      <trkpt lat="60.003977335495" lon="15.772809136466">
        <ele>402</ele>
        <time>2016-02-21T10:24:07Z</time>
      </trkpt>
      <trkpt lat="60.003944897542" lon="15.772731939167">
        <ele>402.2</ele>
        <time>2016-02-21T10:24:09Z</time>
      </trkpt>
      <trkpt lat="60.003855714126" lon="15.772539490743">
        <ele>403</ele>
        <time>2016-02-21T10:24:14Z</time>
      </trkpt>
      <trkpt lat="60.003822773259" lon="15.772371685105">
        <ele>404.2</ele>
        <time>2016-02-21T10:24:18Z</time>
      </trkpt>
      <trkpt lat="60.003856803773" lon="15.771834740591">
        <ele>405.2</ele>
        <time>2016-02-21T10:24:31Z</time>
      </trkpt>
      <trkpt lat="60.003963337722" lon="15.771569788732">
        <ele>406.2</ele>
        <time>2016-02-21T10:24:39Z</time>
      </trkpt>
      <trkpt lat="60.004077583019" lon="15.771294024222">
        <ele>407.2</ele>
        <time>2016-02-21T10:24:48Z</time>
      </trkpt>
      <trkpt lat="60.004150337911" lon="15.770849196789">
        <ele>408.4</ele>
        <time>2016-02-21T10:25:05Z</time>
      </trkpt>
      <trkpt lat="60.004126365677" lon="15.770735454406">
        <ele>409.8</ele>
        <time>2016-02-21T10:25:08Z</time>
      </trkpt>
      <trkpt lat="60.004120665985" lon="15.770694718372">
        <ele>410</ele>
        <time>2016-02-21T10:25:09Z</time>
      </trkpt>
      <trkpt lat="60.004044558333" lon="15.770333542301">
        <ele>410.8</ele>
        <time>2016-02-21T10:25:22Z</time>
      </trkpt>
      <trkpt lat="60.004007342697" lon="15.770338487622">
        <ele>411.2</ele>
        <time>2016-02-21T10:25:30Z</time>
      </trkpt>
      <trkpt lat="60.003983119006" lon="15.770328010247">
        <ele>411.2</ele>
        <time>2016-02-21T10:25:32Z</time>
      </trkpt>
      <trkpt lat="60.003908855372" lon="15.770260284495">
        <ele>412</ele>
        <time>2016-02-21T10:25:37Z</time>
      </trkpt>
      <trkpt lat="60.003835346109" lon="15.770252405509">
        <ele>413</ele>
        <time>2016-02-21T10:25:43Z</time>
      </trkpt>
      <trkpt lat="60.003805338907" lon="15.770313593379">
        <ele>413.2</ele>
        <time>2016-02-21T10:25:47Z</time>
      </trkpt>
      <trkpt lat="60.003792766057" lon="15.770331195369">
        <ele>413.2</ele>
        <time>2016-02-21T10:25:48Z</time>
      </trkpt>
      <trkpt lat="60.003691428886" lon="15.770439070422">
        <ele>413.8</ele>
        <time>2016-02-21T10:25:56Z</time>
      </trkpt>
      <trkpt lat="60.003489257458" lon="15.770605451137">
        <ele>414.2</ele>
        <time>2016-02-21T10:26:06Z</time>
      </trkpt>
      <trkpt lat="60.003343747674" lon="15.770746602333">
        <ele>415.4</ele>
        <time>2016-02-21T10:26:14Z</time>
      </trkpt>
      <trkpt lat="60.003213912043" lon="15.770847185133">
        <ele>416.4</ele>
        <time>2016-02-21T10:26:20Z</time>
      </trkpt>
      <trkpt lat="60.003026911854" lon="15.770922622233">
        <ele>417.6</ele>
        <time>2016-02-21T10:26:29Z</time>
      </trkpt>
      <trkpt lat="60.002825830073" lon="15.770831091885">
        <ele>418.6</ele>
        <time>2016-02-21T10:26:39Z</time>
      </trkpt>
      <trkpt lat="60.002759445425" lon="15.770728497429">
        <ele>419.8</ele>
        <time>2016-02-21T10:26:43Z</time>
      </trkpt>
      <trkpt lat="60.002540426378" lon="15.770535462272">
        <ele>420.8</ele>
        <time>2016-02-21T10:26:54Z</time>
      </trkpt>
      <trkpt lat="60.002415787525" lon="15.770515094255">
        <ele>422</ele>
        <time>2016-02-21T10:27:01Z</time>
      </trkpt>
      <trkpt lat="60.002236498684" lon="15.770547029294">
        <ele>422</ele>
        <time>2016-02-21T10:27:12Z</time>
      </trkpt>
      <trkpt lat="60.00214295668" lon="15.770568989872">
        <ele>421.8</ele>
        <time>2016-02-21T10:27:17Z</time>
      </trkpt>
      <trkpt lat="60.001698045428" lon="15.770754565138">
        <ele>421.2</ele>
        <time>2016-02-21T10:27:34Z</time>
      </trkpt>
      <trkpt lat="60.001427393877" lon="15.770735035311">
        <ele>423</ele>
        <time>2016-02-21T10:27:48Z</time>
      </trkpt>
      <trkpt lat="60.00128381193" lon="15.770788847109">
        <ele>423.8</ele>
        <time>2016-02-21T10:27:55Z</time>
      </trkpt>
      <trkpt lat="60.001261264619" lon="15.770793373335">
        <ele>424</ele>
        <time>2016-02-21T10:27:56Z</time>
      </trkpt>
      <trkpt lat="60.001002934461" lon="15.770575192478">
        <ele>424</ele>
        <time>2016-02-21T10:28:08Z</time>
      </trkpt>
      <trkpt lat="60.001043083762" lon="15.77029842214">
        <ele>425</ele>
        <time>2016-02-21T10:28:15Z</time>
      </trkpt>
      <trkpt lat="60.001126986581" lon="15.769851247775">
        <ele>426.2</ele>
        <time>2016-02-21T10:28:27Z</time>
      </trkpt>
      <trkpt lat="60.001163615484" lon="15.769543883502">
        <ele>427.2</ele>
        <time>2016-02-21T10:28:34Z</time>
      </trkpt>
      <trkpt lat="60.001232849978" lon="15.76912411795">
        <ele>427.4</ele>
        <time>2016-02-21T10:28:43Z</time>
      </trkpt>
      <trkpt lat="60.001439799089" lon="15.768284083932">
        <ele>427.2</ele>
        <time>2016-02-21T10:29:00Z</time>
      </trkpt>
      <trkpt lat="60.001556978051" lon="15.768034135674">
        <ele>428.4</ele>
        <time>2016-02-21T10:29:08Z</time>
      </trkpt>
      <trkpt lat="60.001582459027" lon="15.768004715205">
        <ele>428.6</ele>
        <time>2016-02-21T10:29:10Z</time>
      </trkpt>
      <trkpt lat="60.001636773739" lon="15.768004715205">
        <ele>428.8</ele>
        <time>2016-02-21T10:29:13Z</time>
      </trkpt>
      <trkpt lat="60.001710199183" lon="15.768117619398">
        <ele>429.4</ele>
        <time>2016-02-21T10:29:18Z</time>
      </trkpt>
      <trkpt lat="60.001734171417" lon="15.768172520843">
        <ele>430.4</ele>
        <time>2016-02-21T10:29:20Z</time>
      </trkpt>
      <trkpt lat="60.002055701101" lon="15.768870062561">
        <ele>430.6</ele>
        <time>2016-02-21T10:29:34Z</time>
      </trkpt>
      <trkpt lat="60.002180926687" lon="15.769152448772">
        <ele>429.4</ele>
        <time>2016-02-21T10:29:40Z</time>
      </trkpt>
      <trkpt lat="60.002227110956" lon="15.769269376277">
        <ele>428</ele>
        <time>2016-02-21T10:29:42Z</time>
      </trkpt>
      <trkpt lat="60.002270948293" lon="15.769400301555">
        <ele>426.8</ele>
        <time>2016-02-21T10:29:44Z</time>
      </trkpt>
      <trkpt lat="60.002345379565" lon="15.769590403047">
        <ele>425.4</ele>
        <time>2016-02-21T10:29:47Z</time>
      </trkpt>
      <trkpt lat="60.002408830548" lon="15.769726189827">
        <ele>424.2</ele>
        <time>2016-02-21T10:29:49Z</time>
      </trkpt>
      <trkpt lat="60.002465827468" lon="15.769868095394">
        <ele>422.6</ele>
        <time>2016-02-21T10:29:51Z</time>
      </trkpt>
      <trkpt lat="60.002503629837" lon="15.769955937706">
        <ele>421.8</ele>
        <time>2016-02-21T10:29:52Z</time>
      </trkpt>
      <trkpt lat="60.002531541564" lon="15.770070602098">
        <ele>421.2</ele>
        <time>2016-02-21T10:29:53Z</time>
      </trkpt>
      <trkpt lat="60.002573115788" lon="15.770135226547">
        <ele>420.6</ele>
        <time>2016-02-21T10:29:54Z</time>
      </trkpt>
      <trkpt lat="60.002679063004" lon="15.770270594232">
        <ele>420.2</ele>
        <time>2016-02-21T10:29:57Z</time>
      </trkpt>
      <trkpt lat="60.002983409793" lon="15.770418618586">
        <ele>419.2</ele>
        <time>2016-02-21T10:30:03Z</time>
      </trkpt>
      <trkpt lat="60.003113077786" lon="15.770429850332">
        <ele>418.8</ele>
        <time>2016-02-21T10:30:04Z</time>
      </trkpt>
      <trkpt lat="60.003160686978" lon="15.770412164523">
        <ele>418.6</ele>
        <time>2016-02-21T10:30:05Z</time>
      </trkpt>
      <trkpt lat="60.003282811261" lon="15.770260871228">
        <ele>418</ele>
        <time>2016-02-21T10:30:08Z</time>
      </trkpt>
      <trkpt lat="60.003310639169" lon="15.77019616296">
        <ele>417.6</ele>
        <time>2016-02-21T10:30:09Z</time>
      </trkpt>
      <trkpt lat="60.003335533412" lon="15.770007905486">
        <ele>417</ele>
        <time>2016-02-21T10:30:11Z</time>
      </trkpt>
      <trkpt lat="60.003310639169" lon="15.769788383525">
        <ele>416.6</ele>
        <time>2016-02-21T10:30:14Z</time>
      </trkpt>
      <trkpt lat="60.003179881529" lon="15.769624433561">
        <ele>418</ele>
        <time>2016-02-21T10:30:20Z</time>
      </trkpt>
      <trkpt lat="60.002973519151" lon="15.768895878813">
        <ele>418.8</ele>
        <time>2016-02-21T10:30:36Z</time>
      </trkpt>
      <trkpt lat="60.002977458644" lon="15.768860423376">
        <ele>419</ele>
        <time>2016-02-21T10:30:37Z</time>
      </trkpt>
      <trkpt lat="60.003032527727" lon="15.768489356663">
        <ele>420</ele>
        <time>2016-02-21T10:30:45Z</time>
      </trkpt>
      <trkpt lat="60.003113329243" lon="15.76806464579">
        <ele>421.2</ele>
        <time>2016-02-21T10:30:54Z</time>
      </trkpt>
      <trkpt lat="60.003355649972" lon="15.767572879717">
        <ele>419.8</ele>
        <time>2016-02-21T10:31:06Z</time>
      </trkpt>
      <trkpt lat="60.003446425949" lon="15.767536418452">
        <ele>418.8</ele>
        <time>2016-02-21T10:31:08Z</time>
      </trkpt>
      <trkpt lat="60.003536279917" lon="15.767529377656">
        <ele>417.6</ele>
        <time>2016-02-21T10:31:10Z</time>
      </trkpt>
      <trkpt lat="60.003628396998" lon="15.767531137855">
        <ele>416.8</ele>
        <time>2016-02-21T10:31:12Z</time>
      </trkpt>
      <trkpt lat="60.003683298443" lon="15.767544297438">
        <ele>416.2</ele>
        <time>2016-02-21T10:31:13Z</time>
      </trkpt>
      <trkpt lat="60.003722777192" lon="15.767576651572">
        <ele>415.6</ele>
        <time>2016-02-21T10:31:14Z</time>
      </trkpt>
      <trkpt lat="60.003763597045" lon="15.767629289904">
        <ele>414.8</ele>
        <time>2016-02-21T10:31:15Z</time>
      </trkpt>
      <trkpt lat="60.003805590364" lon="15.767702799167">
        <ele>414.2</ele>
        <time>2016-02-21T10:31:16Z</time>
      </trkpt>
      <trkpt lat="60.00384532057" lon="15.767785612339">
        <ele>413.8</ele>
        <time>2016-02-21T10:31:17Z</time>
      </trkpt>
      <trkpt lat="60.003886475699" lon="15.767948388837">
        <ele>413.4</ele>
        <time>2016-02-21T10:31:19Z</time>
      </trkpt>
      <trkpt lat="60.003953111804" lon="15.768210909945">
        <ele>412.8</ele>
        <time>2016-02-21T10:31:23Z</time>
      </trkpt>
      <trkpt lat="60.004064591074" lon="15.768688845883">
        <ele>412.8</ele>
        <time>2016-02-21T10:31:33Z</time>
      </trkpt>
      <trkpt lat="60.00407163187" lon="15.76873184503">
        <ele>413.8</ele>
        <time>2016-02-21T10:31:34Z</time>
      </trkpt>
      <trkpt lat="60.00407917558" lon="15.768776772014">
        <ele>415.4</ele>
        <time>2016-02-21T10:31:36Z</time>
      </trkpt>
      <trkpt lat="60.004473041061" lon="15.769082962821">
        <ele>415.4</ele>
        <time>2016-02-21T10:31:57Z</time>
      </trkpt>
      <trkpt lat="60.004628357668" lon="15.769123028303">
        <ele>414.2</ele>
        <time>2016-02-21T10:32:01Z</time>
      </trkpt>
      <trkpt lat="60.004717792541" lon="15.769069048867">
        <ele>413.4</ele>
        <time>2016-02-21T10:32:03Z</time>
      </trkpt>
      <trkpt lat="60.004772526348" lon="15.76901515325">
        <ele>412.8</ele>
        <time>2016-02-21T10:32:04Z</time>
      </trkpt>
      <trkpt lat="60.004829523268" lon="15.768951534629">
        <ele>412</ele>
        <time>2016-02-21T10:32:05Z</time>
      </trkpt>
      <trkpt lat="60.00489641083" lon="15.768904093075">
        <ele>411.2</ele>
        <time>2016-02-21T10:32:06Z</time>
      </trkpt>
      <trkpt lat="60.004957682519" lon="15.768866877439">
        <ele>410.4</ele>
        <time>2016-02-21T10:32:07Z</time>
      </trkpt>
      <trkpt lat="60.00501878657" lon="15.768865452516">
        <ele>409.4</ele>
        <time>2016-02-21T10:32:08Z</time>
      </trkpt>
      <trkpt lat="60.005089613625" lon="15.768874924063">
        <ele>408.6</ele>
        <time>2016-02-21T10:32:09Z</time>
      </trkpt>
      <trkpt lat="60.005165218363" lon="15.768908284025">
        <ele>408</ele>
        <time>2016-02-21T10:32:10Z</time>
      </trkpt>
      <trkpt lat="60.005238476169" lon="15.768947595136">
        <ele>407.4</ele>
        <time>2016-02-21T10:32:11Z</time>
      </trkpt>
      <trkpt lat="60.005304776998" lon="15.769010040291">
        <ele>406.6</ele>
        <time>2016-02-21T10:32:12Z</time>
      </trkpt>
      <trkpt lat="60.005419189933" lon="15.769137864266">
        <ele>405.4</ele>
        <time>2016-02-21T10:32:14Z</time>
      </trkpt>
      <trkpt lat="60.005539218741" lon="15.769281865308">
        <ele>404.4</ele>
        <time>2016-02-21T10:32:17Z</time>
      </trkpt>
      <trkpt lat="60.00562060699" lon="15.769322266066">
        <ele>404.2</ele>
        <time>2016-02-21T10:32:19Z</time>
      </trkpt>
      <trkpt lat="60.005707611112" lon="15.769315895822">
        <ele>403.8</ele>
        <time>2016-02-21T10:32:21Z</time>
      </trkpt>
      <trkpt lat="60.005788999361" lon="15.769237944152">
        <ele>403</ele>
        <time>2016-02-21T10:32:23Z</time>
      </trkpt>
      <trkpt lat="60.005852953258" lon="15.769040382769">
        <ele>402</ele>
        <time>2016-02-21T10:32:26Z</time>
      </trkpt>
      <trkpt lat="60.005854964914" lon="15.76897827289">
        <ele>401.8</ele>
        <time>2016-02-21T10:32:27Z</time>
      </trkpt>
      <trkpt lat="60.005838955485" lon="15.768846844698">
        <ele>401.6</ele>
        <time>2016-02-21T10:32:29Z</time>
      </trkpt>
      <trkpt lat="60.005440982873" lon="15.768725726243">
        <ele>402.2</ele>
        <time>2016-02-21T10:32:44Z</time>
      </trkpt>
      <trkpt lat="60.004994730517" lon="15.768478544012">
        <ele>402.8</ele>
        <time>2016-02-21T10:33:03Z</time>
      </trkpt>
      <trkpt lat="60.004625759279" lon="15.768003709377">
        <ele>404</ele>
        <time>2016-02-21T10:33:21Z</time>
      </trkpt>
      <trkpt lat="60.00448569773" lon="15.767854679195">
        <ele>405</ele>
        <time>2016-02-21T10:33:29Z</time>
      </trkpt>
      <trkpt lat="60.004290483279" lon="15.767698692036">
        <ele>406.2</ele>
        <time>2016-02-21T10:33:40Z</time>
      </trkpt>
      <trkpt lat="60.004261230448" lon="15.767649657921">
        <ele>406.6</ele>
        <time>2016-02-21T10:33:42Z</time>
      </trkpt>
      <trkpt lat="60.004184033149" lon="15.767502387938">
        <ele>407.2</ele>
        <time>2016-02-21T10:33:48Z</time>
      </trkpt>
      <trkpt lat="60.003794526256" lon="15.76700936458">
        <ele>407.8</ele>
        <time>2016-02-21T10:34:07Z</time>
      </trkpt>
      <trkpt lat="60.00350082448" lon="15.766710717483">
        <ele>407</ele>
        <time>2016-02-21T10:34:17Z</time>
      </trkpt>
      <trkpt lat="60.003318685793" lon="15.766490189694">
        <ele>406</ele>
        <time>2016-02-21T10:34:23Z</time>
      </trkpt>
      <trkpt lat="60.002912582738" lon="15.766057096921">
        <ele>406.8</ele>
        <time>2016-02-21T10:34:39Z</time>
      </trkpt>
      <trkpt lat="60.002786351324" lon="15.765747301897">
        <ele>406.4</ele>
        <time>2016-02-21T10:34:46Z</time>
      </trkpt>
      <trkpt lat="60.002756344122" lon="15.765564492658">
        <ele>405.6</ele>
        <time>2016-02-21T10:34:48Z</time>
      </trkpt>
      <trkpt lat="60.002730779327" lon="15.765370032578">
        <ele>404.8</ele>
        <time>2016-02-21T10:34:50Z</time>
      </trkpt>
      <trkpt lat="60.002545371699" lon="15.764554641346">
        <ele>405.6</ele>
        <time>2016-02-21T10:35:06Z</time>
      </trkpt>
      <trkpt lat="60.002487368951" lon="15.76447216345">
        <ele>405.6</ele>
        <time>2016-02-21T10:35:09Z</time>
      </trkpt>
      <trkpt lat="60.002431629316" lon="15.764495297494">
        <ele>406</ele>
        <time>2016-02-21T10:35:12Z</time>
      </trkpt>
      <trkpt lat="60.002419727018" lon="15.764518850633">
        <ele>406</ele>
        <time>2016-02-21T10:35:13Z</time>
      </trkpt>
      <trkpt lat="60.002352755637" lon="15.765001228978">
        <ele>406</ele>
        <time>2016-02-21T10:35:25Z</time>
      </trkpt>
      <trkpt lat="60.002313528345" lon="15.76510834966">
        <ele>406.8</ele>
        <time>2016-02-21T10:35:32Z</time>
      </trkpt>
      <trkpt lat="60.002303386246" lon="15.765122179795">
        <ele>407.4</ele>
        <time>2016-02-21T10:35:33Z</time>
      </trkpt>
      <trkpt lat="60.002283353505" lon="15.765135758473">
        <ele>408.2</ele>
        <time>2016-02-21T10:35:35Z</time>
      </trkpt>
      <trkpt lat="60.002272708492" lon="15.765146822581">
        <ele>408.6</ele>
        <time>2016-02-21T10:35:36Z</time>
      </trkpt>
      <trkpt lat="60.002253346303" lon="15.765181691285">
        <ele>408.8</ele>
        <time>2016-02-21T10:35:38Z</time>
      </trkpt>
      <trkpt lat="60.002162905602" lon="15.765291158899">
        <ele>409.6</ele>
        <time>2016-02-21T10:35:45Z</time>
      </trkpt>
      <trkpt lat="60.002083277552" lon="15.765331224381">
        <ele>411</ele>
        <time>2016-02-21T10:35:50Z</time>
      </trkpt>
      <trkpt lat="60.002070620883" lon="15.765339271005">
        <ele>411.8</ele>
        <time>2016-02-21T10:35:51Z</time>
      </trkpt>
      <trkpt lat="60.002053102712" lon="15.765337259349">
        <ele>412.2</ele>
        <time>2016-02-21T10:35:52Z</time>
      </trkpt>
      <trkpt lat="60.002033656704" lon="15.765339773919">
        <ele>412.6</ele>
        <time>2016-02-21T10:35:53Z</time>
      </trkpt>
      <trkpt lat="60.001988394444" lon="15.765327871621">
        <ele>413.4</ele>
        <time>2016-02-21T10:35:56Z</time>
      </trkpt>
      <trkpt lat="60.001888649834" lon="15.765300127532">
        <ele>414.4</ele>
        <time>2016-02-21T10:36:03Z</time>
      </trkpt>
      <trkpt lat="60.001837101149" lon="15.765237011825">
        <ele>415</ele>
        <time>2016-02-21T10:36:07Z</time>
      </trkpt>
      <trkpt lat="60.001812877458" lon="15.765212955772">
        <ele>415.6</ele>
        <time>2016-02-21T10:36:09Z</time>
      </trkpt>
      <trkpt lat="60.00173559634" lon="15.765150175341">
        <ele>416.6</ele>
        <time>2016-02-21T10:36:14Z</time>
      </trkpt>
      <trkpt lat="60.001642138155" lon="15.765107679108">
        <ele>417.6</ele>
        <time>2016-02-21T10:36:20Z</time>
      </trkpt>
      <trkpt lat="60.001627050735" lon="15.765099800122">
        <ele>417.6</ele>
        <time>2016-02-21T10:36:21Z</time>
      </trkpt>
      <trkpt lat="60.001411635905" lon="15.765444044755">
        <ele>418.6</ele>
        <time>2016-02-21T10:36:36Z</time>
      </trkpt>
      <trkpt lat="60.001401661444" lon="15.765845705403">
        <ele>419.8</ele>
        <time>2016-02-21T10:36:46Z</time>
      </trkpt>
      <trkpt lat="60.001396632304" lon="15.76609825205">
        <ele>421.2</ele>
        <time>2016-02-21T10:36:54Z</time>
      </trkpt>
      <trkpt lat="60.001400571797" lon="15.766251557001">
        <ele>422.4</ele>
        <time>2016-02-21T10:37:01Z</time>
      </trkpt>
      <trkpt lat="60.001399733607" lon="15.766295981071">
        <ele>423</ele>
        <time>2016-02-21T10:37:04Z</time>
      </trkpt>
      <trkpt lat="60.00140451129" lon="15.76635138543">
        <ele>423.4</ele>
        <time>2016-02-21T10:37:07Z</time>
      </trkpt>
      <trkpt lat="60.001403924557" lon="15.766377536958">
        <ele>423.4</ele>
        <time>2016-02-21T10:37:08Z</time>
      </trkpt>
      <trkpt lat="60.001404343652" lon="15.766406370694">
        <ele>423.6</ele>
        <time>2016-02-21T10:37:09Z</time>
      </trkpt>
      <trkpt lat="60.001418676701" lon="15.766605859914">
        <ele>424.6</ele>
        <time>2016-02-21T10:37:15Z</time>
      </trkpt>
      <trkpt lat="60.001477014725" lon="15.766889838686">
        <ele>425.6</ele>
        <time>2016-02-21T10:37:23Z</time>
      </trkpt>
      <trkpt lat="60.001427645334" lon="15.767799945388">
        <ele>426.4</ele>
        <time>2016-02-21T10:37:41Z</time>
      </trkpt>
      <trkpt lat="60.001362685609" lon="15.768314845505">
        <ele>426.6</ele>
        <time>2016-02-21T10:37:51Z</time>
      </trkpt>
      <trkpt lat="60.00127626822" lon="15.769202823991">
        <ele>427.6</ele>
        <time>2016-02-21T10:38:10Z</time>
      </trkpt>
      <trkpt lat="60.001171829746" lon="15.77008049274">
        <ele>426.6</ele>
        <time>2016-02-21T10:38:26Z</time>
      </trkpt>
      <trkpt lat="60.00078592707" lon="15.770378720742">
        <ele>426.8</ele>
        <time>2016-02-21T10:38:44Z</time>
      </trkpt>
      <trkpt lat="60.000753405298" lon="15.770366902263">
        <ele>427.6</ele>
        <time>2016-02-21T10:38:45Z</time>
      </trkpt>
      <trkpt lat="60.000666736452" lon="15.770330357179">
        <ele>428.8</ele>
        <time>2016-02-21T10:38:48Z</time>
      </trkpt>
      <trkpt lat="60.000295250644" lon="15.769817636356">
        <ele>429.4</ele>
        <time>2016-02-21T10:39:06Z</time>
      </trkpt>
      <trkpt lat="60.000185363935" lon="15.769698697195">
        <ele>430.4</ele>
        <time>2016-02-21T10:39:12Z</time>
      </trkpt>
      <trkpt lat="60.00015477" lon="15.76966894145">
        <ele>431.4</ele>
        <time>2016-02-21T10:39:14Z</time>
      </trkpt>
      <trkpt lat="60.000051504992" lon="15.76957925512">
        <ele>432.2</ele>
        <time>2016-02-21T10:39:20Z</time>
      </trkpt>
      <trkpt lat="60.000013870261" lon="15.769550002289">
        <ele>432.2</ele>
        <time>2016-02-21T10:39:22Z</time>
      </trkpt>
      <trkpt lat="59.99998461743" lon="15.769503901839">
        <ele>432.4</ele>
        <time>2016-02-21T10:39:24Z</time>
      </trkpt>
      <trkpt lat="59.999879173128" lon="15.769347411766">
        <ele>433.4</ele>
        <time>2016-02-21T10:39:30Z</time>
      </trkpt>
      <trkpt lat="59.999778925604" lon="15.769147335813">
        <ele>434.6</ele>
        <time>2016-02-21T10:39:37Z</time>
      </trkpt>
      <trkpt lat="59.999751432972" lon="15.769088243418">
        <ele>434.6</ele>
        <time>2016-02-21T10:39:39Z</time>
      </trkpt>
      <trkpt lat="59.999640624254" lon="15.768854472227">
        <ele>435.6</ele>
        <time>2016-02-21T10:39:47Z</time>
      </trkpt>
      <trkpt lat="59.999494527737" lon="15.768116362113">
        <ele>436.4</ele>
        <time>2016-02-21T10:40:06Z</time>
      </trkpt>
      <trkpt lat="59.999695106604" lon="15.767294516818">
        <ele>436</ele>
        <time>2016-02-21T10:40:20Z</time>
      </trkpt>
      <trkpt lat="59.999897697127" lon="15.766433695688">
        <ele>436</ele>
        <time>2016-02-21T10:40:36Z</time>
      </trkpt>
      <trkpt lat="59.999986712905" lon="15.76600772753">
        <ele>434.2</ele>
        <time>2016-02-21T10:40:44Z</time>
      </trkpt>
      <trkpt lat="60.000025353464" lon="15.765103236701">
        <ele>433.8</ele>
        <time>2016-02-21T10:40:57Z</time>
      </trkpt>
      <trkpt lat="59.999929548347" lon="15.764720770604">
        <ele>433</ele>
        <time>2016-02-21T10:41:03Z</time>
      </trkpt>
      <trkpt lat="59.999816057421" lon="15.764552126776">
        <ele>433.2</ele>
        <time>2016-02-21T10:41:10Z</time>
      </trkpt>
      <trkpt lat="59.99964682686" lon="15.764063797282">
        <ele>432.2</ele>
        <time>2016-02-21T10:41:21Z</time>
      </trkpt>
      <trkpt lat="59.99966442885" lon="15.764008476742">
        <ele>432</ele>
        <time>2016-02-21T10:41:22Z</time>
      </trkpt>
      <trkpt lat="59.999806250598" lon="15.763857183447">
        <ele>430.6</ele>
        <time>2016-02-21T10:41:26Z</time>
      </trkpt>
      <trkpt lat="59.999888812313" lon="15.76385022647">
        <ele>429.4</ele>
        <time>2016-02-21T10:41:28Z</time>
      </trkpt>
      <trkpt lat="59.999996016814" lon="15.763943433198">
        <ele>428.4</ele>
        <time>2016-02-21T10:41:31Z</time>
      </trkpt>
      <trkpt lat="60.000096012881" lon="15.764083578566">
        <ele>427.2</ele>
        <time>2016-02-21T10:41:35Z</time>
      </trkpt>
      <trkpt lat="60.000246300348" lon="15.764226825237">
        <ele>426.2</ele>
        <time>2016-02-21T10:41:39Z</time>
      </trkpt>
      <trkpt lat="60.000363563129" lon="15.76436319875">
        <ele>425.2</ele>
        <time>2016-02-21T10:41:43Z</time>
      </trkpt>
      <trkpt lat="60.000476215865" lon="15.764479539522">
        <ele>424</ele>
        <time>2016-02-21T10:41:46Z</time>
      </trkpt>
      <trkpt lat="60.000520891392" lon="15.764513486217">
        <ele>423.2</ele>
        <time>2016-02-21T10:41:47Z</time>
      </trkpt>
      <trkpt lat="60.000565315462" lon="15.764545840351">
        <ele>422.4</ele>
        <time>2016-02-21T10:41:48Z</time>
      </trkpt>
      <trkpt lat="60.000666820271" lon="15.764613901379">
        <ele>420.6</ele>
        <time>2016-02-21T10:41:50Z</time>
      </trkpt>
      <trkpt lat="60.000726583218" lon="15.764650865558">
        <ele>419.4</ele>
        <time>2016-02-21T10:41:51Z</time>
      </trkpt>
      <trkpt lat="60.000785675613" lon="15.76468757828">
        <ele>418.4</ele>
        <time>2016-02-21T10:41:52Z</time>
      </trkpt>
      <trkpt lat="60.000917019986" lon="15.764713478351">
        <ele>417.2</ele>
        <time>2016-02-21T10:41:54Z</time>
      </trkpt>
      <trkpt lat="60.001222121146" lon="15.764617673234">
        <ele>416.2</ele>
        <time>2016-02-21T10:41:57Z</time>
      </trkpt>
      <trkpt lat="60.001458826002" lon="15.763999256652">
        <ele>415.6</ele>
        <time>2016-02-21T10:42:07Z</time>
      </trkpt>
      <trkpt lat="60.001511967248" lon="15.763845448787">
        <ele>414.8</ele>
        <time>2016-02-21T10:42:09Z</time>
      </trkpt>
      <trkpt lat="60.001582794303" lon="15.763638667314">
        <ele>413.4</ele>
        <time>2016-02-21T10:42:11Z</time>
      </trkpt>
      <trkpt lat="60.001636354644" lon="15.763549902993">
        <ele>412.2</ele>
        <time>2016-02-21T10:42:12Z</time>
      </trkpt>
      <trkpt lat="60.001773985442" lon="15.763431215289">
        <ele>410.4</ele>
        <time>2016-02-21T10:42:14Z</time>
      </trkpt>
      <trkpt lat="60.001897869924" lon="15.763419312991">
        <ele>409</ele>
        <time>2016-02-21T10:42:16Z</time>
      </trkpt>
      <trkpt lat="60.002003900959" lon="15.763416798421">
        <ele>408.6</ele>
        <time>2016-02-21T10:42:18Z</time>
      </trkpt>
      <trkpt lat="60.002098448791" lon="15.763459462292">
        <ele>408</ele>
        <time>2016-02-21T10:42:20Z</time>
      </trkpt>
      <trkpt lat="60.00248577639" lon="15.764000178661">
        <ele>407.2</ele>
        <time>2016-02-21T10:42:34Z</time>
      </trkpt>
      <trkpt lat="60.002552580133" lon="15.76410671261">
        <ele>406.8</ele>
        <time>2016-02-21T10:42:36Z</time>
      </trkpt>
      <trkpt lat="60.002691216759" lon="15.764307291477">
        <ele>405.6</ele>
        <time>2016-02-21T10:42:40Z</time>
      </trkpt>
      <trkpt lat="60.002734551182" lon="15.764451376338">
        <ele>405.2</ele>
        <time>2016-02-21T10:42:42Z</time>
      </trkpt>
      <trkpt lat="60.002922221923" lon="15.765259726774">
        <ele>404.4</ele>
        <time>2016-02-21T10:42:53Z</time>
      </trkpt>
      <trkpt lat="60.002978380653" lon="15.765650490952">
        <ele>405.6</ele>
        <time>2016-02-21T10:43:00Z</time>
      </trkpt>
      <trkpt lat="60.003024229646" lon="15.765845453946">
        <ele>406.2</ele>
        <time>2016-02-21T10:43:05Z</time>
      </trkpt>
      <trkpt lat="60.003061780558" lon="15.765915275173">
        <ele>406.2</ele>
        <time>2016-02-21T10:43:07Z</time>
      </trkpt>
      <trkpt lat="60.003477858074" lon="15.76630444679">
        <ele>405.8</ele>
        <time>2016-02-21T10:43:24Z</time>
      </trkpt>
      <trkpt lat="60.003671647602" lon="15.76646370289">
        <ele>406.6</ele>
        <time>2016-02-21T10:43:32Z</time>
      </trkpt>
      <trkpt lat="60.003965349378" lon="15.76687441599">
        <ele>407.6</ele>
        <time>2016-02-21T10:43:45Z</time>
      </trkpt>
      <trkpt lat="60.004324513793" lon="15.767405912269">
        <ele>406.8</ele>
        <time>2016-02-21T10:43:58Z</time>
      </trkpt>
      <trkpt lat="60.004386707491" lon="15.767491072373">
        <ele>406.4</ele>
        <time>2016-02-21T10:44:00Z</time>
      </trkpt>
      <trkpt lat="60.004461138763" lon="15.767598528331">
        <ele>405.2</ele>
        <time>2016-02-21T10:44:03Z</time>
      </trkpt>
      <trkpt lat="60.004694826135" lon="15.767825677821">
        <ele>404</ele>
        <time>2016-02-21T10:44:09Z</time>
      </trkpt>
      <trkpt lat="60.004771352882" lon="15.767916872893">
        <ele>403</ele>
        <time>2016-02-21T10:44:11Z</time>
      </trkpt>
      <trkpt lat="60.004902194341" lon="15.768055677157">
        <ele>402</ele>
        <time>2016-02-21T10:44:14Z</time>
      </trkpt>
      <trkpt lat="60.005319193866" lon="15.768487261188">
        <ele>402</ele>
        <time>2016-02-21T10:44:28Z</time>
      </trkpt>
      <trkpt lat="60.005790591922" lon="15.76858264721">
        <ele>401</ele>
        <time>2016-02-21T10:44:42Z</time>
      </trkpt>
      <trkpt lat="60.005837949657" lon="15.768654228636">
        <ele>400.8</ele>
        <time>2016-02-21T10:44:44Z</time>
      </trkpt>
      <trkpt lat="60.005860245511" lon="15.769568274831">
        <ele>401.8</ele>
        <time>2016-02-21T10:45:01Z</time>
      </trkpt>
      <trkpt lat="60.005806852808" lon="15.769819899469">
        <ele>402.2</ele>
        <time>2016-02-21T10:45:07Z</time>
      </trkpt>
      <trkpt lat="60.005707359655" lon="15.770035146661">
        <ele>403.2</ele>
        <time>2016-02-21T10:45:16Z</time>
      </trkpt>
      <trkpt lat="60.005685818172" lon="15.770049982624">
        <ele>404.2</ele>
        <time>2016-02-21T10:45:18Z</time>
      </trkpt>
      <trkpt lat="60.005604010828" lon="15.770041265448">
        <ele>404.6</ele>
        <time>2016-02-21T10:45:23Z</time>
      </trkpt>
      <trkpt lat="60.005367808886" lon="15.76999918831">
        <ele>405.4</ele>
        <time>2016-02-21T10:45:34Z</time>
      </trkpt>
      <trkpt lat="60.005198913601" lon="15.770034308471">
        <ele>406.4</ele>
        <time>2016-02-21T10:45:44Z</time>
      </trkpt>
      <trkpt lat="60.005014511801" lon="15.770096502169">
        <ele>406.6</ele>
        <time>2016-02-21T10:45:54Z</time>
      </trkpt>
      <trkpt lat="60.004954078302" lon="15.770149643415">
        <ele>407.4</ele>
        <time>2016-02-21T10:45:59Z</time>
      </trkpt>
      <trkpt lat="60.004732712323" lon="15.770398418207">
        <ele>408</ele>
        <time>2016-02-21T10:46:11Z</time>
      </trkpt>
      <trkpt lat="60.004405650585" lon="15.7703185387">
        <ele>408.4</ele>
        <time>2016-02-21T10:46:27Z</time>
      </trkpt>
      <trkpt lat="60.004354604814" lon="15.770333123206">
        <ele>409.4</ele>
        <time>2016-02-21T10:46:30Z</time>
      </trkpt>
      <trkpt lat="60.004283610121" lon="15.770403447347">
        <ele>409.8</ele>
        <time>2016-02-21T10:46:33Z</time>
      </trkpt>
      <trkpt lat="60.004253686738" lon="15.770472095108">
        <ele>409.8</ele>
        <time>2016-02-21T10:46:35Z</time>
      </trkpt>
      <trkpt lat="60.004166598797" lon="15.77105111676">
        <ele>408.2</ele>
        <time>2016-02-21T10:46:44Z</time>
      </trkpt>
      <trkpt lat="60.004171879394" lon="15.77112906843">
        <ele>408</ele>
        <time>2016-02-21T10:46:45Z</time>
      </trkpt>
      <trkpt lat="60.004201383682" lon="15.771318331732">
        <ele>407</ele>
        <time>2016-02-21T10:46:48Z</time>
      </trkpt>
      <trkpt lat="60.004389473518" lon="15.771534417114">
        <ele>406.2</ele>
        <time>2016-02-21T10:46:55Z</time>
      </trkpt>
    </trkseg>
  </trk>
</gpx>